Time;durP1;ratioP1;P1;durP2;ratioP2;P2;SDS_P1;SDS_P2;PMS_P1;PMS_P2;Temp;Humidity;BMP_temperature;BMP_pressure;BME280_temperature;BME280_humidity;BME280_pressure;Samples;Min_cycle;Max_cycle;Signal;HPM_P1;HPM_P2
2023/06/06 00:01:24;;;;;;;11.18;6.95;;;;;;;15.72;75.99;101201.84;5999200;23;20011;-70
2023/06/06 00:03:51;;;;;;;7.13;6.47;;;;;;;15.68;77.52;101210.94;6008247;23;20600;-70
2023/06/06 00:06:20;;;;;;;8.05;7.28;;;;;;;15.62;78.03;101229.88;5999777;23;20045;-71
2023/06/06 00:08:50;;;;;;;6.82;6.22;;;;;;;15.63;78.02;101213.88;6030203;23;20042;-70
2023/06/06 00:11:16;;;;;;;8.82;7.20;;;;;;;14.80;78.71;101083.53;6006371;23;20014;-70
2023/06/06 00:13:42;;;;;;;7.32;6.72;;;;;;;15.35;78.54;101176.00;6003908;23;20036;-70
2023/06/06 00:16:12;;;;;;;7.45;6.78;;;;;;;15.54;78.95;101203.91;6002013;23;20086;-70
2023/06/06 00:18:40;;;;;;;8.32;7.53;;;;;;;15.52;79.89;101227.81;6003694;23;20038;-71
2023/06/06 00:21:08;;;;;;;6.93;6.32;;;;;;;15.14;80.60;101193.25;6033219;23;20516;-72
2023/06/06 00:23:35;;;;;;;7.00;6.50;;;;;;;15.44;80.78;101210.75;6002078;23;20026;-71
2023/06/06 00:26:02;;;;;;;7.65;7.05;;;;;;;15.42;81.63;101210.84;6032988;23;20019;-71
2023/06/06 00:28:28;;;;;;;13.95;6.88;;;;;;;15.38;82.05;101213.78;6011728;23;20033;-71
2023/06/06 00:30:55;;;;;;;9.45;6.63;;;;;;;14.26;82.43;101019.06;5996521;23;20031;-71
2023/06/06 00:33:21;;;;;;;7.65;7.15;;;;;;;15.19;82.44;101174.44;6026906;23;20825;-71
2023/06/06 00:35:48;;;;;;;6.38;5.90;;;;;;;15.29;83.09;101183.47;5982480;23;20046;-71
2023/06/06 00:38:15;;;;;;;7.50;6.90;;;;;;;15.30;82.55;101206.34;6006216;23;20434;-71
2023/06/06 00:40:41;;;;;;;6.43;5.93;;;;;;;15.24;84.25;101207.56;6001802;23;20023;-71
2023/06/06 00:43:07;;;;;;;9.55;7.05;;;;;;;15.15;84.60;101216.94;6002803;23;20019;-70
2023/06/06 00:45:34;;;;;;;6.93;6.50;;;;;;;15.19;85.21;101214.09;6044179;23;20042;-70
2023/06/06 00:48:01;;;;;;;8.52;6.38;;;;;;;15.19;85.49;101224.66;6009641;23;20050;-71
2023/06/06 00:50:28;;;;;;;9.32;8.10;;;;;;;13.84;85.65;101018.13;6032388;23;20050;-70
2023/06/06 00:52:55;;;;;;;10.55;6.60;;;;;;;15.09;86.19;101222.59;6009772;23;20035;-71
2023/06/06 00:55:22;;;;;;;7.35;6.75;;;;;;;15.04;86.73;101226.50;6030269;23;20638;-70
2023/06/06 00:57:51;;;;;;;6.25;5.85;;;;;;;13.84;86.64;101059.50;5977078;23;20019;-70
2023/06/06 01:00:18;;;;;;;7.68;6.68;;;;;;;14.41;86.88;101169.56;6024560;23;20130;-71
2023/06/06 01:02:47;;;;;;;7.32;6.60;;;;;;;13.89;87.63;101073.25;6005909;23;20023;-71
2023/06/06 01:05:21;;;;;;;8.23;7.10;;;;;;;13.68;88.61;101055.13;6028799;23;20106;-70
2023/06/06 01:07:47;;;;;;;7.63;6.93;;;;;;;14.71;89.15;101233.78;6011220;23;20027;-70
2023/06/06 01:10:15;;;;;;;7.30;6.70;;;;;;;14.79;90.06;101259.69;6006831;23;20031;-70
2023/06/06 01:12:55;;;;;;;6.30;5.90;;;;;;;14.73;89.98;101260.06;6015279;23;20036;-71
2023/06/06 01:15:28;;;;;;;8.32;6.75;;;;;;;14.71;90.44;101261.97;6000629;23;20035;-71
2023/06/06 01:17:55;;;;;;;6.55;5.65;;;;;;;14.64;91.36;101256.19;6023573;23;20031;-70
2023/06/06 01:20:23;;;;;;;7.43;6.82;;;;;;;14.63;91.37;101275.63;6006457;23;20038;-70
2023/06/06 01:22:52;;;;;;;11.10;7.13;;;;;;;14.65;91.83;101262.34;6027787;23;20026;-70
2023/06/06 01:25:19;;;;;;;7.00;6.40;;;;;;;14.46;92.34;101233.50;6004312;23;20057;-69
2023/06/06 01:27:46;;;;;;;7.72;6.80;;;;;;;14.63;93.27;101265.06;6003661;23;20085;-69
2023/06/06 01:30:15;;;;;;;6.85;6.45;;;;;;;14.50;93.60;101257.00;5976409;23;20050;-70
2023/06/06 01:33:20;;;;;;;7.70;7.15;;;;;;;14.53;93.44;101270.03;6002722;23;20373;-70
2023/06/06 01:36:24;;;;;;;11.98;6.63;;;;;;;14.48;94.54;101284.44;6002127;23;20027;-70
2023/06/06 01:38:56;;;;;;;9.93;6.50;;;;;;;14.46;95.65;101283.69;6025672;23;20038;-70
2023/06/06 01:41:23;;;;;;;8.00;7.10;;;;;;;14.45;96.15;101288.13;6001406;23;20019;-71
2023/06/06 01:43:54;;;;;;;7.45;6.20;;;;;;;14.43;95.63;101295.25;6001143;23;20027;-71
2023/06/06 01:46:22;;;;;;;7.35;6.57;;;;;;;13.84;95.91;101207.25;6030099;23;20034;-71
2023/06/06 01:48:49;;;;;;;8.00;7.20;;;;;;;14.13;96.67;101240.69;6006426;23;20652;-70
2023/06/06 01:51:15;;;;;;;6.97;6.45;;;;;;;13.26;96.35;101114.66;6026895;23;20132;-70
2023/06/06 01:53:42;;;;;;;7.30;6.80;;;;;;;14.38;96.95;101299.13;5980399;23;20039;-71
2023/06/06 01:56:13;;;;;;;6.85;6.20;;;;;;;14.02;96.44;101255.47;6033303;23;21526;-71
2023/06/06 01:58:41;;;;;;;12.07;6.13;;;;;;;14.27;97.33;101305.91;6002122;23;20025;-71
2023/06/06 02:01:08;;;;;;;7.63;6.57;;;;;;;14.13;98.52;101289.97;6025846;23;20117;-70
2023/06/06 02:03:36;;;;;;;7.40;6.70;;;;;;;14.10;98.79;101301.56;5994886;23;20027;-70
2023/06/06 02:06:04;;;;;;;8.60;7.03;;;;;;;14.07;99.49;101303.53;6030526;23;20082;-70
2023/06/06 02:08:31;;;;;;;7.13;6.63;;;;;;;12.70;100.00;101103.69;5997760;23;20047;-70
2023/06/06 02:10:57;;;;;;;7.18;6.53;;;;;;;13.91;100.00;101322.91;6029199;23;20101;-70
2023/06/06 02:13:25;;;;;;;7.18;6.45;;;;;;;13.83;100.00;101311.94;5979630;23;20039;-71
2023/06/06 02:15:52;;;;;;;7.13;6.63;;;;;;;13.82;100.00;101314.63;6001311;23;20034;-71
2023/06/06 02:18:19;;;;;;;10.48;6.65;;;;;;;13.75;100.00;101295.66;6001178;23;20027;-71
2023/06/06 02:20:45;;;;;;;6.85;6.25;;;;;;;13.57;100.00;101285.22;6034251;23;20030;-70
2023/06/06 02:23:12;;;;;;;7.30;6.70;;;;;;;13.86;100.00;101332.00;6003249;23;20163;-69
2023/06/06 02:25:38;;;;;;;7.38;6.45;;;;;;;13.85;100.00;101330.28;6032079;23;20023;-69
2023/06/06 02:28:07;;;;;;;9.68;6.47;;;;;;;13.84;100.00;101337.34;6005825;23;20015;-69
2023/06/06 02:30:33;;;;;;;7.10;6.50;;;;;;;13.81;100.00;101340.19;6025208;23;20038;-69
2023/06/06 02:33:00;;;;;;;7.47;6.88;;;;;;;13.79;100.00;101338.53;6003759;23;20030;-69
2023/06/06 02:35:27;;;;;;;7.65;6.15;;;;;;;13.71;100.00;101333.69;6026937;23;20579;-70
2023/06/06 02:37:53;;;;;;;7.72;7.03;;;;;;;13.51;100.00;101324.22;6003602;23;20086;-70
2023/06/06 02:40:20;;;;;;;7.35;6.60;;;;;;;12.44;100.00;101135.84;6031652;23;20556;-69
2023/06/06 02:42:46;;;;;;;7.22;6.68;;;;;;;12.56;100.00;101185.22;6000450;23;20226;-69
2023/06/06 02:45:13;;;;;;;7.82;6.93;;;;;;;13.59;100.00;101340.50;5984127;23;20035;-69
2023/06/06 02:47:39;;;;;;;7.38;6.78;;;;;;;13.56;100.00;101341.50;6001955;23;20035;-70
2023/06/06 02:50:07;;;;;;;7.05;6.55;;;;;;;13.54;100.00;101337.25;6023597;23;20015;-69
2023/06/06 02:52:35;;;;;;;9.18;7.20;;;;;;;13.49;100.00;101341.91;6000973;23;20085;-69
2023/06/06 02:55:02;;;;;;;7.28;6.57;;;;;;;13.00;100.00;101276.84;6027607;23;20494;-70
2023/06/06 02:57:30;;;;;;;9.68;7.35;;;;;;;12.26;100.00;101180.63;6001934;23;20026;-70
2023/06/06 02:59:58;;;;;;;8.57;7.30;;;;;;;12.07;100.00;101183.34;6033528;23;20018;-70
2023/06/06 03:02:25;;;;;;;8.88;6.55;;;;;;;13.16;100.00;101356.78;6004576;23;20307;-70
2023/06/06 03:04:52;;;;;;;7.43;6.40;;;;;;;13.10;100.00;101354.47;6036478;23;20627;-70
2023/06/06 03:07:20;;;;;;;6.63;6.13;;;;;;;11.82;100.00;101144.25;6010368;23;20023;-70
2023/06/06 03:09:46;;;;;;;8.77;6.70;;;;;;;12.80;100.00;101319.19;6006685;23;20033;-70
2023/06/06 03:12:15;;;;;;;6.45;5.95;;;;;;;11.80;100.00;101158.41;6004738;23;20059;-70
2023/06/06 03:14:45;;;;;;;6.72;6.10;;;;;;;12.73;100.00;101323.94;5978295;23;20027;-70
2023/06/06 03:17:23;;;;;;;7.22;6.40;;;;;;;12.66;100.00;101318.09;5978971;23;20640;-70
2023/06/06 03:19:50;;;;;;;7.70;5.95;;;;;;;12.82;100.00;101343.66;6005099;23;20409;-70
2023/06/06 03:22:17;;;;;;;9.25;7.32;;;;;;;12.66;100.00;101323.38;6041105;23;20030;-70
2023/06/06 03:24:49;;;;;;;7.47;6.70;;;;;;;12.69;100.00;101339.03;5999235;23;20728;-70
2023/06/06 03:27:16;;;;;;;8.02;6.93;;;;;;;12.74;100.00;101352.81;5998855;23;20015;-70
2023/06/06 03:29:43;;;;;;;7.72;6.95;;;;;;;12.61;100.00;101333.31;6005919;23;20046;-69
2023/06/06 03:32:09;;;;;;;7.22;6.63;;;;;;;12.73;100.00;101350.28;6029526;23;20070;-70
2023/06/06 03:34:36;;;;;;;8.32;7.53;;;;;;;12.89;100.00;101371.38;6008128;23;20028;-71
2023/06/06 03:37:03;;;;;;;7.18;6.57;;;;;;;12.35;100.00;101285.44;6028948;23;20014;-72
2023/06/06 03:39:30;;;;;;;6.68;6.13;;;;;;;12.90;100.00;101371.31;6009880;23;20030;-72
2023/06/06 03:41:56;;;;;;;7.40;6.70;;;;;;;12.88;100.00;101386.34;6003447;23;20010;-72
2023/06/06 03:44:23;;;;;;;7.88;6.85;;;;;;;12.90;100.00;101357.28;6003039;23;20031;-71
2023/06/06 03:46:49;;;;;;;7.32;6.72;;;;;;;12.99;100.00;101375.28;6040383;23;20089;-72
2023/06/06 03:49:16;;;;;;;7.93;7.13;;;;;;;13.00;100.00;101357.69;6011367;23;21517;-71
2023/06/06 03:51:42;;;;;;;12.25;7.45;;;;;;;12.96;100.00;101349.91;6030164;23;20026;-72
2023/06/06 03:54:09;;;;;;;8.52;6.43;;;;;;;13.13;100.00;101369.28;6011298;23;20034;-71
2023/06/06 03:56:37;;;;;;;16.23;7.28;;;;;;;13.18;100.00;101367.25;6031937;23;20649;-71
2023/06/06 03:59:11;;;;;;;7.05;6.30;;;;;;;13.18;100.00;101376.00;6005393;23;20055;-72
2023/06/06 04:01:37;;;;;;;6.78;6.18;;;;;;;13.24;100.00;101371.34;6040147;23;20739;-72
2023/06/06 04:04:04;;;;;;;7.78;7.07;;;;;;;13.27;100.00;101377.31;6013512;23;20132;-72
2023/06/06 04:06:31;;;;;;;9.60;6.03;;;;;;;13.32;100.00;101369.19;6028868;23;20023;-72
2023/06/06 04:08:58;;;;;;;7.75;6.43;;;;;;;13.68;100.00;101370.78;5981271;23;20033;-72
2023/06/06 04:11:26;;;;;;;7.47;6.78;;;;;;;14.13;100.00;101382.38;6036749;23;20516;-72
2023/06/06 04:13:52;;;;;;;11.02;6.95;;;;;;;14.53;100.00;101364.25;5982232;23;20199;-72
2023/06/06 04:16:19;;;;;;;7.90;7.15;;;;;;;15.13;98.41;101374.81;5898153;23;20027;-71
2023/06/06 04:18:47;;;;;;;7.28;6.68;;;;;;;14.94;93.17;101273.78;6013453;23;20081;-73
2023/06/06 04:21:13;;;;;;;12.18;6.88;;;;;;;15.52;89.13;101304.53;6003286;23;20025;-73
2023/06/06 04:23:40;;;;;;;7.82;6.80;;;;;;;15.80;86.14;101288.72;6011821;23;20673;-71
2023/06/06 04:26:10;;;;;;;7.20;6.50;;;;;;;15.74;84.14;101298.75;5995567;23;20008;-73
2023/06/06 04:28:37;;;;;;;9.63;7.22;;;;;;;15.81;84.12;101311.56;6034983;23;20030;-72
2023/06/06 04:31:07;;;;;;;9.18;6.88;;;;;;;16.01;83.55;101312.94;6002433;23;20148;-72
2023/06/06 04:33:34;;;;;;;8.68;7.25;;;;;;;16.05;81.36;101295.91;5996371;23;20108;-72
2023/06/06 04:36:00;;;;;;;7.30;6.60;;;;;;;15.26;81.34;101160.72;6023678;23;20030;-72
2023/06/06 04:38:29;;;;;;;8.98;6.50;;;;;;;15.78;80.00;101235.88;6000261;23;20039;-72
2023/06/06 04:40:59;;;;;;;7.57;6.53;;;;;;;15.67;79.26;101178.31;6021671;23;20619;-71
2023/06/06 04:43:49;;;;;;;7.78;6.53;;;;;;;16.61;77.66;101258.59;6001103;23;20086;-71
2023/06/06 04:46:21;;;;;;;7.80;7.07;;;;;;;14.78;76.83;100959.44;5999888;23;20034;-72
2023/06/06 04:48:55;;;;;;;10.00;6.63;;;;;;;16.70;76.55;101264.13;6000790;23;20027;-72
2023/06/06 04:51:29;;;;;;;9.95;7.07;;;;;;;16.61;76.00;101226.81;5997305;23;20043;-71
2023/06/06 04:54:06;;;;;;;9.90;7.65;;;;;;;16.91;75.50;101258.31;6003345;23;20086;-69
2023/06/06 04:56:32;;;;;;;10.13;7.22;;;;;;;16.90;74.72;101223.00;6030660;23;20072;-70
2023/06/06 04:59:09;;;;;;;12.98;7.22;;;;;;;16.86;74.74;101234.78;5999104;23;20015;-70
2023/06/06 05:01:36;;;;;;;9.85;7.70;;;;;;;15.96;76.24;101162.34;5999142;23;20033;-70
2023/06/06 05:04:04;;;;;;;8.15;7.45;;;;;;;16.16;77.29;101208.66;6029572;23;20041;-70
2023/06/06 05:06:31;;;;;;;7.47;6.78;;;;;;;16.42;77.22;101237.84;6008071;23;20608;-71
2023/06/06 05:09:00;;;;;;;7.97;7.22;;;;;;;16.71;76.84;101259.66;6009339;23;20078;-71
2023/06/06 05:11:26;;;;;;;7.95;7.25;;;;;;;17.32;75.09;101249.25;6023901;23;20021;-72
2023/06/06 05:13:53;;;;;;;7.82;7.13;;;;;;;17.50;74.00;101229.34;6008036;23;20027;-71
2023/06/06 05:16:19;;;;;;;8.77;7.93;;;;;;;17.82;72.48;101242.03;6032970;23;20014;-71
2023/06/06 05:18:46;;;;;;;9.32;8.35;;;;;;;17.94;70.57;101158.84;6007451;23;20589;-72
2023/06/06 05:21:14;;;;;;;9.23;7.65;;;;;;;18.67;68.75;101188.66;6005846;23;20630;-72
2023/06/06 05:23:40;;;;;;;8.60;7.80;;;;;;;18.90;66.91;101136.34;5998230;23;20029;-72
2023/06/06 05:26:07;;;;;;;9.48;8.45;;;;;;;18.49;65.90;101057.22;6028407;23;20129;-72
2023/06/06 05:28:33;;;;;;;8.90;7.82;;;;;;;17.48;67.60;100983.59;6003002;23;20031;-72
2023/06/06 05:31:02;;;;;;;9.88;8.30;;;;;;;18.36;66.73;101077.75;6004787;23;20082;-72
2023/06/06 05:33:31;;;;;;;11.27;8.27;;;;;;;18.48;66.28;101090.91;6024098;23;20535;-71
2023/06/06 05:35:58;;;;;;;10.00;7.85;;;;;;;18.97;65.02;101075.50;5997443;23;20023;-72
2023/06/06 05:38:25;;;;;;;13.60;7.60;;;;;;;18.38;66.69;101113.88;6031825;23;20033;-72
2023/06/06 05:40:52;;;;;;;9.20;8.18;;;;;;;18.45;66.41;101067.22;5998702;23;20019;-72
2023/06/06 05:43:18;;;;;;;8.73;7.90;;;;;;;18.61;66.34;101098.75;6027201;23;20018;-72
2023/06/06 05:45:44;;;;;;;8.80;7.90;;;;;;;17.84;66.27;101003.84;6003987;23;20031;-72
2023/06/06 05:48:11;;;;;;;9.93;7.85;;;;;;;18.04;67.13;101054.53;5997523;23;20098;-72
2023/06/06 05:50:37;;;;;;;8.52;7.70;;;;;;;18.63;65.84;101075.53;6023576;23;20158;-72
2023/06/06 05:53:04;;;;;;;9.23;7.90;;;;;;;18.32;66.79;101080.66;5997670;23;20630;-71
2023/06/06 05:55:32;;;;;;;8.80;7.90;;;;;;;17.79;67.53;101035.19;6005500;23;20473;-71
2023/06/06 05:58:00;;;;;;;9.73;8.23;;;;;;;18.43;67.22;101105.53;6005700;23;20700;-72
2023/06/06 06:00:28;;;;;;;9.85;8.20;;;;;;;18.29;67.29;101072.91;5995028;23;20031;-72
2023/06/06 06:02:56;;;;;;;9.18;8.27;;;;;;;18.48;66.47;101088.25;6007496;23;20093;-72
2023/06/06 06:05:28;;;;;;;10.63;8.02;;;;;;;18.23;66.35;101038.03;5997908;23;20263;-70
2023/06/06 06:07:55;;;;;;;10.68;8.38;;;;;;;17.60;66.26;100942.00;6009041;23;20038;-70
2023/06/06 06:10:21;;;;;;;9.00;8.15;;;;;;;18.52;66.59;101070.22;5975894;23;20039;-70
2023/06/06 06:12:47;;;;;;;12.10;8.63;;;;;;;19.12;65.08;101082.25;5997923;23;20023;-70
2023/06/06 06:15:14;;;;;;;8.70;7.80;;;;;;;19.63;63.65;101072.69;5971984;23;20630;-70
2023/06/06 06:17:40;;;;;;;13.77;8.77;;;;;;;19.97;62.05;101029.88;6028778;23;20651;-70
2023/06/06 06:20:09;;;;;;;10.40;7.50;;;;;;;18.51;62.73;100855.94;5997013;23;20043;-70
2023/06/06 06:22:36;;;;;;;9.43;8.15;;;;;;;19.79;62.27;101034.16;6002966;23;20063;-70
2023/06/06 06:25:08;;;;;;;12.18;8.60;;;;;;;18.38;62.25;100852.59;5998352;23;20697;-70
2023/06/06 06:27:37;;;;;;;10.77;8.45;;;;;;;19.06;64.13;101034.88;5998216;23;20061;-69
2023/06/06 06:30:08;;;;;;;14.40;8.60;;;;;;;18.81;65.31;101054.63;5996620;23;20681;-71
2023/06/06 06:32:36;;;;;;;8.70;7.88;;;;;;;18.78;65.99;101085.91;6025825;23;20050;-72
2023/06/06 06:35:06;;;;;;;12.07;8.77;;;;;;;18.69;65.72;101035.16;5999675;23;20022;-72
2023/06/06 06:37:39;;;;;;;8.05;7.20;;;;;;;18.93;65.38;101095.34;6029071;23;20033;-72
2023/06/06 06:40:09;;;;;;;10.70;8.25;;;;;;;18.06;65.80;100944.59;6014194;23;20087;-72
2023/06/06 06:42:40;;;;;;;9.18;8.27;;;;;;;18.87;64.93;101067.44;5991474;23;20035;-71
2023/06/06 06:45:08;;;;;;;9.35;8.13;;;;;;;18.54;65.71;101047.91;5994805;23;20035;-71
2023/06/06 06:47:35;;;;;;;8.95;7.93;;;;;;;17.33;65.48;100858.28;5997546;23;20094;-69
2023/06/06 06:50:04;;;;;;;8.43;7.32;;;;;;;18.69;65.51;101059.09;6025001;23;20030;-69
2023/06/06 06:52:35;;;;;;;8.15;7.20;;;;;;;19.02;64.26;101064.47;5999510;23;20037;-69
2023/06/06 06:55:04;;;;;;;10.98;8.60;;;;;;;18.48;64.77;101023.59;6020207;23;20102;-69
2023/06/06 06:57:33;;;;;;;11.23;8.00;;;;;;;18.05;67.11;101082.81;5997858;23;20034;-69
2023/06/06 07:00:45;;;;;;;11.15;8.63;;;;;;;18.18;67.61;101104.81;6024293;23;20556;-69
2023/06/06 07:02:53;;;;;;;13.57;8.68;;;;;;;18.24;67.46;101111.44;5992051;23;20078;-71
2023/06/06 07:05:20;;;;;;;10.20;8.10;;;;;;;17.46;67.86;101012.06;5988457;23;20033;-70
2023/06/06 07:07:52;;;;;;;9.40;7.75;;;;;;;18.44;67.09;101116.06;5996883;23;20019;-70
2023/06/06 07:10:22;;;;;;;9.40;8.45;;;;;;;18.70;66.00;101100.69;6000192;23;20010;-70
2023/06/06 07:12:51;;;;;;;9.18;7.93;;;;;;;19.17;65.26;101124.44;5997508;23;20101;-71
2023/06/06 07:15:19;;;;;;;9.55;7.43;;;;;;;18.90;64.41;101058.34;6026274;23;20029;-71
2023/06/06 07:17:48;;;;;;;8.10;7.35;;;;;;;18.78;65.17;101091.22;5996539;23;20011;-70
2023/06/06 07:20:15;;;;;;;13.10;7.70;;;;;;;18.77;65.86;101116.13;5995022;23;20473;-71
2023/06/06 07:22:41;;;;;;;9.60;7.65;;;;;;;18.67;65.81;101103.56;6007137;23;20035;-70
2023/06/06 07:25:08;;;;;;;7.90;7.15;;;;;;;17.44;65.10;100876.88;6003262;23;20023;-70
2023/06/06 07:27:37;;;;;;;13.65;7.55;;;;;;;18.63;64.83;101070.22;6025925;23;20034;-70
2023/06/06 07:30:06;;;;;;;12.70;7.70;;;;;;;18.86;64.59;101080.84;5972162;23;20706;-70
2023/06/06 07:32:33;;;;;;;8.38;7.50;;;;;;;19.35;63.50;101111.44;5995065;23;20526;-71
2023/06/06 07:35:00;;;;;;;12.55;7.35;;;;;;;19.59;63.05;101099.72;6030624;23;20065;-70
2023/06/06 07:37:27;;;;;;;8.38;7.57;;;;;;;19.25;62.00;101012.03;6000446;23;20028;-70
2023/06/06 07:39:53;;;;;;;9.13;8.23;;;;;;;19.35;63.05;101068.84;6004519;23;20092;-70
2023/06/06 07:42:20;;;;;;;11.70;7.78;;;;;;;19.16;62.62;101042.91;5998135;23;20098;-72
2023/06/06 07:44:48;;;;;;;9.52;7.50;;;;;;;19.47;63.04;101090.94;6000626;23;20042;-69
2023/06/06 07:47:15;;;;;;;11.32;7.88;;;;;;;19.35;62.41;101052.88;5999223;23;20055;-70
2023/06/06 07:49:43;;;;;;;8.73;7.90;;;;;;;19.02;62.55;101041.38;6000741;23;20553;-69
2023/06/06 07:52:11;;;;;;;12.02;8.32;;;;;;;18.93;62.80;101042.16;6000454;23;20082;-72
2023/06/06 07:54:37;;;;;;;8.63;7.63;;;;;;;19.03;63.30;101076.81;6002067;23;20037;-69
2023/06/06 07:57:08;;;;;;;10.82;8.23;;;;;;;19.28;63.00;101080.94;6026451;23;20655;-69
2023/06/06 07:59:38;;;;;;;10.02;8.23;;;;;;;19.27;62.57;101047.34;6003982;23;20095;-70
2023/06/06 08:02:05;;;;;;;12.35;8.15;;;;;;;19.18;62.45;101037.47;6007456;23;20019;-69
2023/06/06 08:04:31;;;;;;;8.48;7.50;;;;;;;18.94;62.45;101017.22;6001405;23;20038;-69
2023/06/06 08:06:58;;;;;;;11.43;8.15;;;;;;;19.72;61.92;101111.91;6000283;23;20149;-70
2023/06/06 08:09:24;;;;;;;8.32;7.03;;;;;;;20.13;60.78;101078.19;5999567;23;20701;-70
2023/06/06 08:11:51;;;;;;;7.80;7.10;;;;;;;19.95;59.50;100981.22;5998729;23;20097;-69
2023/06/06 08:14:17;;;;;;;7.97;7.25;;;;;;;20.08;59.20;100973.00;6031079;23;20034;-69
2023/06/06 08:16:44;;;;;;;8.32;7.57;;;;;;;19.69;58.97;100923.03;5997340;23;20023;-70
2023/06/06 08:19:10;;;;;;;11.50;7.95;;;;;;;20.52;59.41;101046.34;6032554;23;20474;-69
2023/06/06 08:21:37;;;;;;;9.85;7.22;;;;;;;20.71;58.69;101015.41;6003283;23;20063;-70
2023/06/06 08:24:03;;;;;;;9.43;8.15;;;;;;;19.91;57.47;100868.78;6032692;23;20034;-70
2023/06/06 08:26:30;;;;;;;8.07;7.22;;;;;;;20.55;57.38;100975.91;5999862;23;20753;-70
2023/06/06 08:28:57;;;;;;;9.07;7.53;;;;;;;19.92;57.02;100854.50;6007669;23;20062;-72
2023/06/06 08:31:24;;;;;;;9.55;8.43;;;;;;;20.54;57.87;101000.88;5995069;23;20022;-72
2023/06/06 08:33:51;;;;;;;8.88;7.85;;;;;;;20.47;57.60;100973.94;6024613;23;20071;-70
2023/06/06 08:36:17;;;;;;;11.38;7.75;;;;;;;20.98;58.37;101056.59;5997839;23;20063;-72
2023/06/06 08:38:44;;;;;;;12.75;7.65;;;;;;;20.44;57.34;100917.38;6008246;23;20089;-72
2023/06/06 08:41:14;;;;;;;12.10;8.77;;;;;;;21.19;56.23;100976.34;5996177;23;20034;-71
2023/06/06 08:43:46;;;;;;;9.90;7.57;;;;;;;20.61;56.08;100879.41;6027144;23;20031;-73
2023/06/06 08:46:15;;;;;;;9.63;7.45;;;;;;;21.33;55.14;100949.25;6001854;23;20039;-73
2023/06/06 08:48:43;;;;;;;13.90;8.15;;;;;;;20.58;55.40;100812.97;6026023;23;20037;-73
2023/06/06 08:51:12;;;;;;;8.82;7.00;;;;;;;21.24;55.49;100958.94;6002277;23;20560;-72
2023/06/06 08:53:41;;;;;;;8.27;7.40;;;;;;;20.55;56.18;100909.25;6028935;23;20030;-71
2023/06/06 08:56:08;;;;;;;8.95;8.13;;;;;;;19.85;56.29;100834.69;6000568;23;20014;-77
2023/06/06 08:58:36;;;;;;;7.65;7.03;;;;;;;21.14;56.04;100989.31;6032248;23;20026;-72
2023/06/06 09:01:04;;;;;;;9.07;7.70;;;;;;;19.49;55.28;100733.13;5999110;23;20078;-72
2023/06/06 09:03:31;;;;;;;8.35;7.22;;;;;;;21.43;55.20;101035.53;6027091;23;20093;-71
2023/06/06 09:06:03;;;;;;;7.85;7.22;;;;;;;21.84;54.62;100996.06;6004948;23;20027;-70
2023/06/06 09:08:30;;;;;;;11.60;7.47;;;;;;;22.08;53.53;100990.19;6027559;23;20048;-70
2023/06/06 09:10:56;;;;;;;8.30;7.57;;;;;;;21.09;52.73;100754.91;6000732;23;20793;-70
2023/06/06 09:13:23;;;;;;;7.82;7.03;;;;;;;22.04;51.95;100919.31;6004687;23;20025;-70
2023/06/06 09:15:49;;;;;;;7.63;6.93;;;;;;;21.98;52.24;100889.69;6002674;23;20022;-71
2023/06/06 09:18:16;;;;;;;8.48;7.55;;;;;;;21.31;51.91;100789.22;6022755;23;20106;-71
2023/06/06 09:20:51;;;;;;;7.80;7.20;;;;;;;22.28;51.12;100901.91;6002231;23;20054;-70
2023/06/06 09:23:18;;;;;;;9.52;7.63;;;;;;;19.96;52.84;100617.13;6001223;23;20340;-72
2023/06/06 09:25:46;;;;;;;8.48;7.70;;;;;;;21.88;52.88;100936.00;6003332;23;20508;-72
2023/06/06 09:28:13;;;;;;;8.50;7.68;;;;;;;21.80;52.22;100903.84;5997885;23;20027;-71
2023/06/06 09:30:39;;;;;;;7.93;7.13;;;;;;;21.91;52.74;100932.22;6005850;23;20046;-71
2023/06/06 09:33:06;;;;;;;7.72;7.20;;;;;;;21.87;52.40;100928.97;6001098;23;20031;-71
2023/06/06 09:35:41;;;;;;;9.15;7.60;;;;;;;22.09;51.28;100917.06;6006096;23;20485;-70
2023/06/06 09:38:15;;;;;;;7.93;7.20;;;;;;;22.18;51.29;100882.38;6021042;23;20086;-70
2023/06/06 09:41:01;;;;;;;7.82;7.13;;;;;;;22.06;50.93;100892.44;6000679;23;20015;-70
2023/06/06 09:43:30;;;;;;;8.10;6.90;;;;;;;22.77;50.60;100965.72;6027783;23;20159;-71
2023/06/06 09:46:04;;;;;;;13.27;7.53;;;;;;;22.93;48.99;100904.31;5998246;23;20027;-69
2023/06/06 09:48:31;;;;;;;7.90;7.10;;;;;;;23.00;49.26;100891.16;6028049;23;20023;-70
2023/06/06 09:50:58;;;;;;;8.60;7.80;;;;;;;22.87;47.59;100761.28;5993920;23;20051;-71
2023/06/06 09:53:26;;;;;;;7.57;6.97;;;;;;;23.14;47.92;100863.84;6024369;23;20038;-72
2023/06/06 09:55:55;;;;;;;7.75;6.95;;;;;;;22.65;47.72;100757.31;5996477;23;20126;-72
2023/06/06 09:58:25;;;;;;;7.57;6.90;;;;;;;23.62;47.74;100910.63;5999403;23;20044;-71
2023/06/06 10:00:57;;;;;;;12.73;7.45;;;;;;;23.63;47.16;100879.31;5998471;23;20027;-69
2023/06/06 10:03:24;;;;;;;7.97;7.28;;;;;;;23.68;47.09;100882.38;6023861;23;20031;-71
2023/06/06 10:05:52;;;;;;;8.82;8.02;;;;;;;23.13;48.40;100856.78;5977130;23;20019;-72
2023/06/06 10:08:21;;;;;;;9.10;7.75;;;;;;;23.18;49.12;100926.78;6022668;23;20152;-72
2023/06/06 10:10:49;;;;;;;7.88;7.28;;;;;;;22.90;49.89;100932.22;6003694;23;20034;-72
2023/06/06 10:13:18;;;;;;;8.20;7.40;;;;;;;23.16;49.36;100933.31;6021130;23;20039;-71
2023/06/06 10:15:45;;;;;;;8.65;7.85;;;;;;;23.24;49.18;100931.50;5997512;23;20034;-73
2023/06/06 10:18:13;;;;;;;10.43;7.80;;;;;;;22.71;49.88;100876.19;6027962;23;20088;-73
2023/06/06 10:20:40;;;;;;;8.07;7.38;;;;;;;21.91;49.88;100778.06;5978358;23;20471;-73
2023/06/06 10:23:07;;;;;;;8.57;7.75;;;;;;;22.14;50.47;100839.06;6023235;23;20019;-73
2023/06/06 10:25:36;;;;;;;9.93;9.02;;;;;;;22.98;50.14;100944.84;5991983;23;20051;-72
2023/06/06 10:28:17;;;;;;;8.75;7.85;;;;;;;23.63;50.18;101061.53;6021335;23;20043;-72
2023/06/06 10:30:43;;;;;;;8.65;7.20;;;;;;;23.97;48.63;101005.31;5999949;23;20022;-72
2023/06/06 10:33:37;;;;;;;8.63;6.95;;;;;;;24.15;49.03;100999.84;6025566;23;20031;-71
2023/06/06 10:36:07;;;;;;;8.65;7.85;;;;;;;24.45;48.20;100990.38;6005236;23;20106;-69
2023/06/06 10:38:34;;;;;;;8.40;7.55;;;;;;;24.34;48.25;100953.16;6000038;23;20111;-70
2023/06/06 10:41:13;;;;;;;8.57;7.80;;;;;;;23.68;47.60;100842.19;6025108;23;20394;-71
2023/06/06 10:43:43;;;;;;;7.65;6.97;;;;;;;24.56;47.73;100957.09;5998195;23;20031;-70
2023/06/06 10:46:11;;;;;;;8.52;7.75;;;;;;;23.58;47.12;100794.06;6026821;23;20019;-71
2023/06/06 10:48:39;;;;;;;8.05;7.20;;;;;;;23.49;47.94;100820.00;6002280;23;20035;-70
2023/06/06 10:51:31;;;;;;;8.10;7.30;;;;;;;24.48;47.54;100930.22;6025300;23;20021;-71
2023/06/06 10:54:33;;;;;;;10.60;8.40;;;;;;;24.46;46.65;100903.53;5997267;23;20035;-71
2023/06/06 10:57:00;;;;;;;7.93;7.22;;;;;;;24.60;46.32;100877.94;6026509;23;20232;-71
2023/06/06 10:59:28;;;;;;;7.57;7.00;;;;;;;25.07;44.73;100874.53;5978553;23;20031;-71
2023/06/06 11:01:55;;;;;;;8.15;7.35;;;;;;;24.87;45.35;100863.31;5995695;23;20085;-70
2023/06/06 11:04:24;;;;;;;8.27;7.50;;;;;;;24.74;45.12;100849.59;6025669;23;20075;-71
2023/06/06 11:06:53;;;;;;;7.80;7.00;;;;;;;24.60;45.77;100853.78;5991751;23;20047;-70
2023/06/06 11:09:24;;;;;;;7.35;6.85;;;;;;;25.05;45.38;100884.59;6026694;23;20050;-72
2023/06/06 11:12:20;;;;;;;8.23;7.43;;;;;;;24.98;45.26;100862.13;5997927;23;20027;-71
2023/06/06 11:15:07;;;;;;;7.53;6.97;;;;;;;23.20;43.59;100487.53;6019075;23;20129;-70
2023/06/06 11:17:49;;;;;;;8.02;7.25;;;;;;;23.54;44.22;100594.50;6000434;23;20098;-71
2023/06/06 11:20:18;;;;;;;7.53;6.93;;;;;;;24.71;46.19;100906.28;6024970;23;20961;-71
2023/06/06 11:22:53;;;;;;;7.70;7.00;;;;;;;25.23;44.66;100888.97;5990431;23;20021;-71
2023/06/06 11:25:23;;;;;;;7.68;6.97;;;;;;;25.36;44.22;100894.66;6001885;23;20023;-70
2023/06/06 11:27:50;;;;;;;8.18;7.05;;;;;;;25.01;44.04;100785.75;6003370;23;20031;-71
2023/06/06 11:30:17;;;;;;;7.55;6.82;;;;;;;24.99;43.67;100804.72;6009616;23;20031;-71